createdAt,value
2022-11-25T00:07:21.381Z,6.18
2022-11-25T00:22:23.782Z,5.69
2022-11-25T00:37:26.230Z,5.56
2022-11-25T00:52:28.586Z,4.99
2022-11-25T01:07:31.370Z,4.92
2022-11-25T01:22:33.753Z,5.1
2022-11-25T01:37:36.180Z,5.1
2022-11-25T01:52:38.758Z,4.57
2022-11-25T02:07:41.320Z,4.7
2022-11-25T02:22:43.619Z,4.25
2022-11-25T02:37:45.785Z,3.83
2022-11-25T02:52:48.132Z,3.62
2022-11-25T03:07:50.396Z,4.02
2022-11-25T03:22:52.781Z,3.8
2022-11-25T03:37:55.318Z,4.15
2022-11-25T03:52:57.814Z,4.03
2022-11-25T04:08:00.313Z,4.06
2022-11-25T04:23:02.733Z,4.11
2022-11-25T04:38:05.230Z,4.12
2022-11-25T04:53:07.545Z,4
2022-11-25T05:08:09.797Z,3.64
2022-11-25T05:23:12.969Z,3.88
2022-11-25T05:38:15.376Z,4.28
2022-11-25T05:53:18.018Z,4.1
2022-11-25T06:08:20.779Z,4.09
2022-11-25T06:23:23.396Z,4.06
2022-11-25T06:38:25.883Z,4.55
2022-11-25T06:53:28.207Z,4.3
2022-11-25T07:08:33.989Z,4.39
2022-11-25T07:23:37.213Z,3.85
2022-11-25T07:38:43.571Z,3.06
2022-11-25T07:53:48.869Z,3.94
2022-11-25T08:08:51.159Z,4.28
2022-11-25T08:23:53.598Z,4.04
2022-11-25T08:38:55.944Z,3.96
2022-11-25T08:53:58.563Z,3.07
2022-11-25T09:09:01.258Z,3.68
2022-11-25T09:24:03.745Z,3.78
2022-11-25T09:39:06.391Z,3.99
2022-11-25T09:54:08.675Z,3.57
2022-11-25T10:09:11.024Z,3.8
2022-11-25T10:24:13.210Z,4
2022-11-25T10:39:15.504Z,3.91
2022-11-25T10:54:19.527Z,3.67
2022-11-25T11:09:23.925Z,3.63
2022-11-25T11:24:26.194Z,3.88
2022-11-25T11:39:28.395Z,3.59
2022-11-25T11:54:30.761Z,3.95
2022-11-25T12:09:33.037Z,4.08
2022-11-25T12:24:35.830Z,3.63
2022-11-25T12:39:38.230Z,3.11
2022-11-25T12:54:40.492Z,3.75
2022-11-25T13:09:42.796Z,3.37
2022-11-25T13:24:44.997Z,3.39
2022-11-25T13:39:47.249Z,3.46
2022-11-25T13:54:49.502Z,3.5
2022-11-25T14:09:52.069Z,3.15
2022-11-25T14:24:54.248Z,2.41
2022-11-25T14:39:56.590Z,2.68
2022-11-25T14:54:59.112Z,2.77
2022-11-25T15:10:01.437Z,2.85
2022-11-25T15:25:03.744Z,2.75
2022-11-25T15:40:06.006Z,2.76
2022-11-25T15:55:08.273Z,2.99
2022-11-25T16:10:10.629Z,2.32
2022-11-25T16:25:13.036Z,2.68
2022-11-25T16:40:15.362Z,2.68
2022-11-25T16:55:17.649Z,3.18
2022-11-25T17:10:19.879Z,3.83
2022-11-25T17:25:22.124Z,4.01
2022-11-25T17:40:24.326Z,3.67
2022-11-25T17:55:26.615Z,4.07
2022-11-25T18:10:28.928Z,3.86
2022-11-25T18:25:31.167Z,3.4
2022-11-25T18:40:33.429Z,3.12
2022-11-25T18:55:35.639Z,4.07
2022-11-25T19:10:37.860Z,4.4
2022-11-25T19:25:40.039Z,4
2022-11-25T19:40:42.242Z,3.94
2022-11-25T19:55:44.658Z,4.47
2022-11-25T20:10:46.871Z,4.79
2022-11-25T20:25:49.260Z,4.43
2022-11-25T20:40:51.506Z,4.63
2022-11-25T20:55:53.713Z,4.4
2022-11-25T21:10:55.971Z,4.49
2022-11-25T21:25:58.260Z,4.59
2022-11-25T21:41:00.475Z,4.37
2022-11-25T21:56:02.649Z,4.69
2022-11-25T22:11:04.903Z,4.65
2022-11-25T22:26:07.134Z,4.82
2022-11-25T22:41:09.573Z,4.76
2022-11-25T22:56:11.793Z,4.91
2022-11-25T23:11:14.039Z,4.82
2022-11-25T23:26:16.481Z,4.96
2022-11-25T23:41:18.722Z,4.92
2022-11-25T23:56:21.159Z,4.84
